地図

経路データ

SID SEASON NUMBER BASIN SUBBASIN NAME ISO_TIME NATURE LAT LON WMO_WIND WMO_PRES WMO_AGENCY TRACK_TYPE DIST2LAND LANDFALL IFLAG USA_AGENCY USA_ATCF_ID USA_LAT USA_LON USA_RECORD USA_STATUS USA_WIND USA_PRES USA_SSHS USA_R34_NE USA_R34_SE USA_R34_SW USA_R34_NW USA_R50_NE USA_R50_SE USA_R50_SW USA_R50_NW USA_R64_NE USA_R64_SE USA_R64_SW USA_R64_NW USA_POCI USA_ROCI USA_RMW USA_EYE TOKYO_LAT TOKYO_LON TOKYO_GRADE TOKYO_WIND TOKYO_PRES TOKYO_R50_DIR TOKYO_R50_LONG TOKYO_R50_SHORT TOKYO_R30_DIR TOKYO_R30_LONG TOKYO_R30_SHORT TOKYO_LAND CMA_LAT CMA_LON CMA_CAT CMA_WIND CMA_PRES HKO_LAT HKO_LON HKO_CAT HKO_WIND HKO_PRES NEWDELHI_LAT NEWDELHI_LON NEWDELHI_GRADE NEWDELHI_WIND NEWDELHI_PRES NEWDELHI_CI NEWDELHI_DP NEWDELHI_POCI REUNION_LAT REUNION_LON REUNION_TYPE REUNION_WIND REUNION_PRES REUNION_TNUM REUNION_CI REUNION_RMW REUNION_R34_NE REUNION_R34_SE REUNION_R34_SW REUNION_R34_NW REUNION_R50_NE REUNION_R50_SE REUNION_R50_SW REUNION_R50_NW REUNION_R64_NE REUNION_R64_SE REUNION_R64_SW REUNION_R64_NW BOM_LAT BOM_LON BOM_TYPE BOM_WIND BOM_PRES BOM_TNUM BOM_CI BOM_RMW BOM_R34_NE BOM_R34_SE BOM_R34_SW BOM_R34_NW BOM_R50_NE BOM_R50_SE BOM_R50_SW BOM_R50_NW BOM_R64_NE BOM_R64_SE BOM_R64_SW BOM_R64_NW BOM_ROCI BOM_POCI BOM_EYE BOM_POS_METHOD BOM_PRES_METHOD NADI_LAT NADI_LON NADI_CAT NADI_WIND NADI_PRES WELLINGTON_LAT WELLINGTON_LON WELLINGTON_WIND WELLINGTON_PRES DS824_LAT DS824_LON DS824_STAGE DS824_WIND DS824_PRES TD9636_LAT TD9636_LON TD9636_STAGE TD9636_WIND TD9636_PRES TD9635_LAT TD9635_LON TD9635_WIND TD9635_PRES TD9635_ROCI NEUMANN_LAT NEUMANN_LON NEUMANN_CLASS NEUMANN_WIND NEUMANN_PRES MLC_LAT MLC_LON MLC_CLASS MLC_WIND MLC_PRES USA_GUST BOM_GUST BOM_GUST_PER REUNION_GUST REUNION_GUST_PER USA_SEAHGT USA_SEARAD_NE USA_SEARAD_SE USA_SEARAD_SW USA_SEARAD_NW STORM_SPEED STORM_DIR
1958179N04158 1958 46 WP MM TESS 1958-06-28 00:00:00 TS 4.20000 158.400 main 1100 1087 __O___________ -1 4.20000 158.400 1 29 1007 5 283
1958179N04158 1958 46 WP MM TESS 1958-06-28 03:00:00 TS 4.25748 158.143 main 1088 1059 __P___________ -1 4.25748 158.143 1 29 1007 6 270
1958179N04158 1958 46 WP MM TESS 1958-06-28 06:00:00 TS 4.20000 157.800 main 1059 1014 __O___________ -1 4.20000 157.800 1 29 1008 9 252
1958179N04158 1958 46 WP MM TESS 1958-06-28 09:00:00 TS 3.99003 157.322 main 1008 967 __P___________ -1 3.99003 157.322 1 29 1008 10 253
1958179N04158 1958 46 WP MM TESS 1958-06-28 12:00:00 TS 3.90000 156.800 main 967 949 __O___________ -1 3.90000 156.800 1 29 1008 11 277
1958179N04158 1958 46 WP MM TESS 1958-06-28 15:00:00 TS 4.12010 156.253 main 957 951 __P___________ -1 4.12010 156.253 1 29 1008 12 312
1958179N04158 1958 46 WP MM TESS 1958-06-28 18:00:00 TS 4.70000 155.900 main 992 992 __O___________ -1 4.70000 155.900 1 29 1008 16 353
1958179N04158 1958 46 WP MM TESS 1958-06-28 21:00:00 TS 5.71997 156.049 main 1095 1095 __P___________ -1 5.71997 156.049 1 29 1008 21 7
1958179N04158 1958 46 WP MM TESS 1958-06-29 00:00:00 TS 6.80000 156.150 main 1216 1211 O_O______OOO__ jtwc_wp WP051958 6.80000 156.100 25 -1 6.80000 156.200 1 29 1008 6.80000 156.100 TC 25 6.80000 156.100 1 25 6.80000 156.100 25 1003 180 17 348
1958179N04158 1958 46 WP MM TESS 1958-06-29 03:00:00 TS 7.36430 155.683 main 1251 1246 P_P______PPP__ WP051958 7.29758 155.608 25 -1 7.48998 155.855 1 29 1008 7.29758 155.608 TC 25 7.31313 155.565 1 25 7.29758 155.608 25 1002 180 15 316
1958179N04158 1958 46 WP MM TESS 1958-06-29 06:00:00 TS 7.85390 155.139 main 1276 1272 O_O______OPO__ jtwc_wp WP051958 7.80000 155.100 25 -1 8.00000 155.300 1 29 1008 7.80000 155.100 TC 25 7.82080 155.044 1 25 7.80000 155.100 25 1001 180 15 312
1958179N04158 1958 46 WP MM TESS 1958-06-29 09:00:00 TS 8.34262 154.605 main 1299 1299 P_P______PPP__ WP051958 8.30751 154.578 25 -1 8.47256 154.742 1 29 1007 8.30751 154.578 TC 25 8.31802 154.550 1 25 8.30751 154.578 25 1000 180 14 314
1958179N04158 1958 46 WP MM TESS 1958-06-29 12:00:00 TS 8.82000 154.120 main 1336 1336 O_O______OOO__ jtwc_wp WP051958 8.80000 154.100 25 -1 8.90000 154.200 1 29 1006 8.80000 154.100 TC 25 8.80000 154.100 1 25 8.80000 154.100 25 1000 180 13 318
1958179N04158 1958 46 WP MM TESS 1958-06-29 15:00:00 TS 9.27717 153.739 main 1380 1380 P_P______PPP__ WP051958 9.25736 153.735 25 -1 9.34982 153.792 1 29 1006 9.25736 153.735 TC 25 9.26393 153.701 1 25 9.25736 153.735 25 999 180 12 321
1958179N04158 1958 46 WP MM TESS 1958-06-29 18:00:00 TS 9.72288 153.387 main 1416 1416 O_O______OPO__ jtwc_wp WP051958 9.70000 153.400 25 -1 9.80000 153.400 1 29 1006 9.70000 153.400 TC 25 9.71439 153.334 1 25 9.70000 153.400 25 999 180 12 320
1958179N04158 1958 46 WP MM TESS 1958-06-29 21:00:00 TS 10.1745 152.978 main 1464 1462 P_P______PPP__ WP051958 10.1500 153.007 25 -1 10.2651 152.893 1 29 1006 10.1500 153.007 TC 25 10.1577 152.976 1 25 10.1500 153.007 25 999 180 12 318
1958179N04158 1958 46 WP MM TESS 1958-06-30 00:00:00 TS 10.6200 152.560 main 1502 1500 O_O______OOO__ jtwc_wp WP051958 10.6000 152.600 25 -1 10.7000 152.400 1 29 1006 10.6000 152.600 TC 25 10.6000 152.600 1 25 10.6000 152.600 25 999 180 12 318
1958179N04158 1958 46 WP MM TESS 1958-06-30 03:00:00 TS 11.0506 152.177 main 1552 1551 P_P______PPP__ WP051958 11.0499 152.215 25 -1 11.0498 152.050 1 29 1006 11.0499 152.215 TC 25 11.0538 152.191 1 25 11.0499 152.215 25 998 180 12 318
1958179N04158 1958 46 WP MM TESS 1958-06-30 06:00:00 TS 11.4814 151.772 main 1594 1593 O_O______OPO__ jtwc_wp WP051958 11.5000 151.800 25 -1 11.4000 151.700 1 29 1006 11.5000 151.800 TC 25 11.5070 151.759 1 25 11.5000 151.800 25 998 180 12 316
1958179N04158 1958 46 WP MM TESS 1958-06-30 09:00:00 TS 11.9344 151.291 main 1626 1626 P_P______PPP__ WP051958 11.9575 151.315 25 -1 11.8426 151.215 1 29 1005 11.9575 151.315 TC 25 11.9568 151.298 1 25 11.9575 151.315 25 997 180 13 313
1958179N04158 1958 46 WP MM TESS 1958-06-30 12:00:00 TS 12.3800 150.780 main 1667 1665 O_O______OOO__ jtwc_wp WP051958 12.4000 150.800 25 -1 12.3000 150.700 1 29 1004 12.4000 150.800 TC 25 12.4000 150.800 1 25 12.4000 150.800 25 997 180 13 312
1958179N04158 1958 46 WP MM TESS 1958-06-30 15:00:00 TS 12.7927 150.299 main 1699 1697 P_P______PPP__ WP051958 12.7998 150.322 25 -1 12.6998 150.265 1 29 1004 12.7998 150.322 TC 25 12.8646 150.265 1 25 12.7998 150.322 25 997 180 13 310
1958179N04158 1958 46 WP MM TESS 1958-06-30 18:00:00 TS 13.2035 149.779 main 1734 1732 O_O______OPO__ jtwc_wp WP051958 13.2000 149.800 25 -1 13.1000 149.800 1 29 1004 13.2000 149.800 TC 25 13.3173 149.695 1 25 13.2000 149.800 25 997 180 14 308
1958179N04158 1958 46 WP MM TESS 1958-06-30 21:00:00 TS 13.6594 149.155 main 1781 1778 P_P______PPP__ WP051958 13.6652 149.150 25 -1 13.5650 149.223 1 29 1004 13.6652 149.150 TC 25 13.7364 149.103 1 25 13.6652 149.150 25 996 180 15 306
1958179N04158 1958 46 WP MM TESS 1958-07-01 00:00:00 TS 14.0800 148.520 main 1818 1818 O_O______OOO__ jtwc_wp WP051958 14.1000 148.500 25 -1 14.0000 148.600 1 29 1004 14.1000 148.500 TC 25 14.1000 148.500 1 25 14.1000 148.500 25 996 180 14 304
1958179N04158 1958 46 WP MM TESS 1958-07-01 03:00:00 TS 14.4162 147.993 main 1849 1849 P_P______PPP__ WP051958 14.4445 148.007 27 -1 14.3372 148.015 1 33 1003 14.4445 148.007 TC 27 14.4102 147.927 1 28 14.4445 148.007 28 995 180 12 299
1958179N04158 1958 46 WP MM TESS 1958-07-01 06:00:00 TS 14.6879 147.399 1004 tokyo main 1882 1882 OOO______OPO__ jtwc_wp WP051958 14.7000 147.500 30 -1 15.0000 146.400 2 1004 0 0 0 14.6000 147.400 2 38 1002 14.7000 147.500 TC 30 14.6613 147.344 1 32 14.7000 147.500 32 995 180 13 291
1958179N04158 1958 46 WP MM TESS 1958-07-01 09:00:00 TS 14.8818 146.729 main 1904 1904 PPP______PPP__ WP051958 14.8797 146.860 35 0 15.0476 145.970 2 1003 0 0 14.8300 146.707 2 38 1002 14.8797 146.860 TC 35 14.8569 146.740 1 36 14.8797 146.860 36 995 180 14 284
1958179N04158 1958 46 WP MM TESS 1958-07-01 12:00:00 TS 15.0130 146.004 1002 tokyo main 1916 1916 OOO______OOO__ jtwc_wp WP051958 15.0000 146.100 40 0 15.1000 145.500 2 1002 0 0 0 15.0000 146.000 2 38 1002 15.0000 146.100 TC 40 15.0000 146.100 2 40 15.0000 146.100 40 995 180 15 279
1958179N04158 1958 46 WP MM TESS 1958-07-01 15:00:00 TS 15.1187 145.209 main 1933 1933 PPP______PPP__ WP051958 15.1230 145.178 45 0 15.1575 144.965 2 1001 0 0 15.1221 145.357 2 43 1001 15.1230 145.178 TC 45 15.0639 145.397 2 43 15.1230 145.178 45 994 180 15 276
1958179N04158 1958 46 WP MM TESS 1958-07-01 18:00:00 TS 15.1809 144.444 1000 tokyo main 1953 1953 OOO______OPO__ jtwc_wp WP051958 15.2000 144.300 50 0 15.2000 144.400 2 1000 0 0 0 15.2000 144.700 3 48 1000 15.2000 144.300 TC 50 15.0852 144.663 2 47 15.2000 144.300 50 994 180 14 272
1958179N04158 1958 46 WP MM TESS 1958-07-01 21:00:00 TS 15.1687 143.800 main 1962 1941 PPP______PPP__ WP051958 15.1694 143.697 52 0 15.1699 143.850 2 1000 0 0 15.2202 143.935 3 48 999 15.1694 143.697 TC 52 15.1138 143.922 2 51 15.1694 143.697 52 994 180 12 272
1958179N04158 1958 46 WP MM TESS 1958-07-02 00:00:00 TS 15.2167 143.217 1000 tokyo main 1941 1891 OOO______OOO__ jtwc_wp WP051958 15.2000 143.200 55 0 15.2000 143.300 9 1000 0 0 0 15.3000 143.200 3 48 998 15.2000 143.200 TC 55 15.2000 143.200 2 55 15.2000 143.200 55 994 180 11 285
1958179N04158 1958 46 WP MM TESS 1958-07-02 03:00:00 TS 15.4594 142.672 main 1893 1836 PPP______PPP__ WP051958 15.4621 142.680 57 0 15.4045 142.787 9 1000 0 0 15.5769 142.650 3 53 996 15.4621 142.680 TC 57 15.3886 142.552 2 57 15.4621 142.680 57 993 180 12 297
1958179N04158 1958 46 WP MM TESS 1958-07-02 06:00:00 TS 15.7738 142.087 1000 tokyo main 1836 1766 OOO______OPO__ jtwc_wp WP051958 15.8000 142.100 60 0 15.7000 142.200 9 1000 0 0 0 15.9000 142.100 3 58 995 15.8000 142.100 TC 60 15.6430 141.922 2 60 15.8000 142.100 60 993 180 14 295
1958179N04158 1958 46 WP MM TESS 1958-07-02 09:00:00 TS 16.0397 141.377 main 1766 1690 PPP______PPP__ WP051958 16.0575 141.380 62 0 16.0076 141.438 9 1000 0 0 16.1073 141.402 3 63 994 16.0575 141.380 TC 62 15.9510 141.280 2 62 16.0575 141.380 62 994 180 15 290
1958179N04158 1958 46 WP MM TESS 1958-07-02 12:00:00 TS 16.3000 140.600 1000 tokyo main 1690 1624 OOO______OOO__ jtwc_wp WP051958 16.3000 140.600 65 1 16.3000 140.600 9 1000 0 0 0 16.3000 140.600 4 68 993 16.3000 140.600 TC 65 16.3000 140.600 3 65 16.3000 140.600 65 995 180 16 288
1958179N04158 1958 46 WP MM TESS 1958-07-02 15:00:00 TS 16.5264 139.818 main 1614 1552 PPP______PPP__ WP051958 16.5046 139.864 67 1 16.4622 139.799 9 1000 0 0 16.4977 139.699 4 68 993 16.5046 139.864 TC 67 16.6848 139.820 3 67 16.5046 139.864 67 996 180 16 289
1958179N04158 1958 46 WP MM TESS 1958-07-02 18:00:00 TS 16.8335 139.017 1000 tokyo main 1541 1480 OOO______OPO__ jtwc_wp WP051958 16.8000 139.100 70 1 16.7000 139.000 9 1000 0 0 0 16.8000 138.800 4 68 993 16.8000 139.100 TC 70 17.1007 139.001 3 70 16.8000 139.100 70 997 180 18 298
1958179N04158 1958 46 WP MM TESS 1958-07-02 21:00:00 TS 17.3410 138.185 main 1480 1428 PPP______PPP__ WP051958 17.3276 138.243 72 1 17.2199 138.186 9 1000 0 0 17.3271 138.013 4 68 994 17.3276 138.243 TC 72 17.5161 138.182 3 72 17.3276 138.243 72 996 180 19 304
1958179N04158 1958 46 WP MM TESS 1958-07-03 00:00:00 TS 17.8833 137.383 1000 tokyo main 1428 1381 OOO______OOO__ jtwc_wp WP051958 17.9000 137.400 75 1 17.8000 137.400 9 1000 0 0 0 17.9000 137.300 4 68 995 17.9000 137.400 TC 75 17.9000 137.400 4 75 17.9000 137.400 75 995 180 17 304
1958179N04158 1958 46 WP MM TESS 1958-07-03 03:00:00 TS 18.3129 136.666 main 1381 1333 PPP______PPP__ WP051958 18.3596 136.662 72 1 18.2448 136.662 9 1000 0 0 18.3447 136.627 4 68 995 18.3596 136.662 TC 72 18.2092 136.717 4 73 18.3596 136.662 72 995 180 15 300
1958179N04158 1958 46 WP MM TESS 1958-07-03 06:00:00 TS 18.6475 136.013 1000 tokyo main 1333 1298 OOO______OPO__ jtwc_wp WP051958 18.7000 136.000 70 1 18.6000 136.000 9 1000 0 0 0 18.7000 136.000 4 68 995 18.7000 136.000 TC 70 18.4851 136.075 4 72 18.7000 136.000 70 995 180 13 295
1958179N04158 1958 46 WP MM TESS 1958-07-03 09:00:00 TS 18.8724 135.402 main 1298 1247 PPP______PPP__ WP051958 18.8871 135.392 70 1 18.8723 135.405 9 1000 0 0 18.9573 135.384 4 58 997 18.8871 135.392 TC 70 18.7436 135.446 4 71 18.8871 135.392 70 996 180 12 290
1958179N04158 1958 46 WP MM TESS 1958-07-03 12:00:00 TS 19.0500 134.817 1000 tokyo main 1251 1210 OOO______OOO__ jtwc_wp WP051958 19.0000 134.800 70 1 19.1000 134.900 9 1000 0 0 0 19.2000 134.800 3 48 1000 19.0000 134.800 TC 70 19.0000 134.800 4 70 19.0000 134.800 70 997 180 12 289
1958179N04158 1958 46 WP MM TESS 1958-07-03 15:00:00 TS 19.2485 134.242 main 1200 1166 PPP______PPP__ WP051958 19.1121 134.179 70 1 19.3416 134.544 9 1000 0 0 19.5345 134.272 3 48 1000 19.1121 134.179 TC 70 19.2786 134.096 4 68 19.1121 134.179 70 997 180 12 291
1958179N04158 1958 46 WP MM TESS 1958-07-03 18:00:00 TS 19.4928 133.612 1000 tokyo main 1162 1119 OOO______OPO__ jtwc_wp WP051958 19.3000 133.500 70 1 19.6000 134.100 9 1000 0 0 0 19.9000 133.700 3 48 1000 19.3000 133.500 TC 70 19.5569 133.372 4 67 19.3000 133.500 70 998 180 14 294
1958179N04158 1958 46 WP MM TESS 1958-07-03 21:00:00 TS 19.8242 132.866 main 1119 1047 PPP______PPP__ WP051958 19.6548 132.730 67 1 19.8773 133.355 9 1000 0 0 20.2720 133.017 3 48 1000 19.6548 132.730 TC 67 19.8317 132.637 4 66 19.6548 132.730 67 998 150 16 295
1958179N04158 1958 46 WP MM TESS 1958-07-04 00:00:00 TS 20.2000 132.033 1000 tokyo main 1037 964 OOO______OOO__ jtwc_wp WP051958 20.1000 131.900 65 1 20.2000 132.400 9 1000 0 0 0 20.6000 132.200 3 48 1000 20.1000 131.900 TC 65 20.1000 131.900 4 65 20.1000 131.900 65 999 120 18 295
1958179N04158 1958 46 WP MM TESS 1958-07-04 03:00:00 TS 20.6084 131.110 main 954 883 PPP______PPP__ WP051958 20.6027 131.021 52 0 20.6237 131.264 9 1002 0 0 20.8459 131.178 3 43 1001 20.6027 131.021 TC 52 20.3731 131.155 4 58 20.6027 131.021 52 999 120 18 294
1958179N04158 1958 46 WP MM TESS 1958-07-04 06:00:00 TS 20.9395 130.235 1005 tokyo main 873 821 OOO______OPO__ jtwc_wp WP051958 21.0000 130.200 40 0 21.0000 130.200 9 1005 0 0 0 21.0000 130.200 2 38 1002 21.0000 130.200 TC 40 20.6371 130.413 4 52 21.0000 130.200 40 1000 120 15 288
1958179N04158 1958 46 WP MM TESS 1958-07-04 09:00:00 TS 21.0730 129.573 main 821 763 PPP______PPP__ WP051958 21.1018 129.561 40 0 21.1862 129.531 9 1005 0 0 21.0641 129.532 2 33 1003 21.1018 129.561 TC 40 20.8826 129.689 4 46 21.1018 129.561 40 1001 150 12 280
1958179N04158 1958 46 WP MM TESS 1958-07-04 12:00:00 TS 21.1333 129.000 1005 tokyo main 763 710 OOO______OOO__ jtwc_wp WP051958 21.1000 129.000 40 0 21.3000 129.000 9 1005 0 0 0 21.1000 129.000 1 29 1005 21.1000 129.000 TC 40 21.1000 129.000 2 40 21.1000 129.000 40 1003 180 11 279
1958179N04158 1958 46 WP MM TESS 1958-07-04 15:00:00 TS 21.2416 128.390 main 710 665 PPP______PPP__ WP051958 21.1773 128.400 40 0 21.4575 128.343 9 1005 0 0 21.1772 128.442 1 1005 21.1773 128.400 TC 40 21.2833 128.356 2 40 21.1773 128.400 40 1004 180 11 282
1958179N04158 1958 46 WP MM TESS 1958-07-04 18:00:00 TS 21.3702 127.794 1005 tokyo main 665 618 OOO______OPO__ jtwc_wp WP051958 21.3000 127.800 40 0 21.6000 127.700 9 1005 0 0 0 21.3000 127.900 0 1005 21.3000 127.800 TC 40 21.4384 127.750 2 40 21.3000 127.800 40 1005 180 12 283
1958179N04158 1958 46 WP MM TESS 1958-07-04 21:00:00 TS 21.4996 127.176 main 618 566 PPP______PPP__ WP051958 21.4552 127.155 40 0 21.6475 127.097 9 1005 0 0 21.4476 127.320 0 1005 21.4552 127.155 TC 40 21.5745 127.169 2 40 21.4552 127.155 40 1006 150 11 288
1958179N04158 1958 46 WP MM TESS 1958-07-05 00:00:00 TS 21.7200 126.640 1006 tokyo main 556 507 OOO______OOO__ jtwc_wp WP051958 21.7000 126.600 40 0 21.8000 126.600 9 1006 0 0 0 21.7000 126.800 0 1006 21.7000 126.600 TC 40 21.7000 126.600 2 40 21.7000 126.600 40 1007 120 11 303
1958179N04158 1958 46 WP MM TESS 1958-07-05 03:00:00 TS 22.0698 126.226 main 505 468 PPP______P_P__ WP051958 22.0023 126.173 40 0 22.2248 126.196 9 1006 0 0 22.0524 126.353 0 1006 22.0023 126.173 TC 40 2 22.0648 126.240 40 1008 120 11 327
1958179N04158 1958 46 WP MM TESS 1958-07-05 06:00:00 TS 22.5938 126.019 1006 tokyo main 468 447 OOO______O_O__ jtwc_wp WP051958 22.5000 126.000 40 0 22.8000 126.000 2 1006 0 0 0 22.6000 126.100 0 1006 22.5000 126.000 TC 40 2 22.5000 126.000 40 1010 120 13 356
1958179N04158 1958 46 WP MM TESS 1958-07-05 09:00:00 TS 23.3260 126.117 main 447 443 PPP______P____ WP051958 23.2748 126.130 37 0 23.4000 126.089 2 1006 0 0 23.3826 126.119 0 1006 23.2748 126.130 TC 37 2 16 14
1958179N04158 1958 46 WP MM TESS 1958-07-05 12:00:00 TS 24.1583 126.433 1006 tokyo main 453 453 OOO______O____ jtwc_wp WP051958 24.2000 126.500 35 0 24.0000 126.300 2 1006 0 0 0 24.3000 126.300 0 1006 24.2000 126.500 TC 35 18 21
1958179N04158 1958 46 WP MM TESS 1958-07-05 15:00:00 TS 25.0267 126.826 main 483 483 PP_______P____ WP051958 25.1522 126.925 32 -1 24.5249 126.433 2 1006 0 0 0 25.1522 126.925 TC 32 19 26
1958179N04158 1958 46 WP MM TESS 1958-07-05 18:00:00 TS 25.8571 127.357 1006 tokyo main 550 548 OO_______O____ jtwc_wp WP051958 26.0000 127.500 30 -1 25.0000 126.500 2 1006 0 0 0 26.0000 127.500 TC 30 20 39
1958179N04158 1958 46 WP MM TESS 1958-07-05 21:00:00 TS 26.5835 128.212 main 548 476 P________P____ WP051958 26.5835 128.212 27 -1 2 0 0 26.5835 128.212 TC 27 19 52
1958179N04158 1958 46 WP MM TESS 1958-07-06 00:00:00 TS 27.0000 129.000 main 476 O________O____ jtwc_wp WP051958 27.0000 129.000 25 -1 27.0000 129.000 TC 25 16 59

デジタル台風データ・検索

IBTrACS Databaseについて

本データベースは、米国NOAAが公開する1842年以降の世界の熱帯低気圧のベストトラックデータアーカイブInternational Best Track Archive for Climate Stewardship (IBTrACS)を、ウェブで閲覧しやすい形式に変換したものです。

最終更新日:2021-10-27